Charleston, SC

6:48 PM EDT on August 27, 2015 (GMT -0400)
Charleston Air Force Base-International | | Change Station
CLOSE
Current Station
Airport
Location: Charleston,
Elevation: 46 ft
Nearby Weather Stations

Elev 46 ft 32.90 °N, 80.04 °W | Updated 52 minutes ago

Overcast
Overcast
83 °F
Feels Like 88 °F
N
6
Wind Variable Wind from North

Today
High -- | Low -- °F
--% Chance of Precip.
Yesterday
High -- | Low -- °F
Precip. -- in
6:51 AM 7:51 PM
Waxing Gibbous, 95% visible
Pressure 29.97 in
Visibility 10.0 miles
Clouds Few 4500 ft
Scattered Clouds 6500 ft
Mostly Cloudy 20000 ft
Heat Index 88 °F
Dew Point 72 °F
Humidity 69%
Rainfall 0.05 in
Snow Depth Not available.
UV 1 out of 12
Pollen 6.40 out of 12
Air Quality Not available.
Flu Activity Not available.
METAR KCHS 272156Z 01005KT 10SM FEW045 SCT065 BKN200 28/22 A2997 RMK AO2 SLP149 CB DSNT E T02830222
Pressure 29.97 in
Visibility 10.0 miles
Clouds Few 4500 ft
Scattered Clouds 6500 ft
Mostly Cloudy 20000 ft
Heat Index 88 °F
Dew Point 72 °F
Humidity 69%
Rainfall 0.05 in
Snow Depth Not available.
UV 1 out of 12
Pollen 6.40 out of 12
Air Quality Not available.
Flu Activity Not available.
METAR KCHS 272156Z 01005KT 10SM FEW045 SCT065 BKN200 28/22 A2997 RMK AO2 SLP149 CB DSNT E T02830222
Tropical Storm Erika remains unorganized as it travels through the northeast Caribbean Sea. The storm has already dumped 5-10 inches of rain on the Lesser Antilles, with more rain anticipated for Puerto Rico and Hispaniola. This will be much-needed rain for those islands. Erika is not forecast to reach hurricane strength until Monday when it curves northward along the east coast of Florida. Follow the live blog

10-Day Weather Forecast

×

Almanac

Astronomy

Aug. 27, 2015 Rise Set
Actual Time
Civil Twilight
Nautical Twilight
Astronomical Twilight
Moon
Length of Visible Light
Length of Day
Tomorrow will be .
, % of the Moon is Illuminated

Today's Extremes

State Highs State Lows

Community

WunderPhotos

Upload Photos

1,850,252 photos uploaded!

WunderBlogs® & News

Nearby

Air Quality

  Air Quality AQ Index Pollutant
Not available.

Snow Depth

Station Depth Elevation

Earthquake Activity

City Distance Mag. Time & Date
Minimum magnitude displayed is 2.5.

Coastal Water Temperatures

Place Temperature

Stations

Nearby Weather Stations

Station Location Temp. Windchill Dew Point Humidity Wind Precip. Elev Updated Type